This is the latest recevied weather packets stored in our database for station/object E24YPM-1. If no packets are shown the sender has not sent any weather packets the latest 10 day(s).
| Time | Temp. | Humidity | Pressure | Rain* | Wind** | Luminosity | Snow |
|---|---|---|---|---|---|---|---|
| 1777831141 | 31.67° C | 26% | 1003 hPa | - | - | 0 W/m² | - |
| 1777830206 | 31.67° C | 27% | 1003 hPa | - | - | 0 W/m² | - |
| 1777829291 | 31.67° C | 27% | 1003 hPa | - | - | 0 W/m² | - |
| 1777828397 | 31.67° C | 27% | 1003 hPa | - | - | 0 W/m² | - |
| 1777827476 | 31.67° C | 27% | 1003 hPa | - | - | 0 W/m² | - |
| 1777826572 | 31.67° C | 27% | 1003 hPa | - | - | 0 W/m² | - |
| 1777825641 | 31.67° C | 28% | 1003 hPa | - | - | 0 W/m² | - |
| 1777824707 | 31.67° C | 28% | 1003 hPa | - | - | 0 W/m² | - |
| 1777823794 | 31.67° C | 29% | 1003 hPa | - | - | 0 W/m² | - |
| 1777822882 | 31.67° C | 31% | 1003 hPa | - | - | 0 W/m² | - |
| 1777821968 | 31.67° C | 32% | 1003 hPa | - | - | 0 W/m² | - |
| 1777821055 | 31.67° C | 32% | 1003 hPa | - | - | 0 W/m² | - |
| 1777820143 | 32.22° C | 32% | 1003 hPa | - | - | 0 W/m² | - |
| 1777819248 | 32.78° C | 32% | 1002 hPa | - | - | 0 W/m² | - |
| 1777818312 | 32.78° C | 33% | 1002 hPa | - | - | 0 W/m² | - |
| 1777817398 | 33.33° C | 36% | 1002 hPa | - | - | 0 W/m² | - |
| 1777815534 | 36.11° C | 44% | 1001 hPa | - | - | 0 W/m² | - |
| 1777814618 | 35.56° C | 43% | 1001 hPa | - | - | 0 W/m² | - |
| 1777813696 | 36.11° C | 41% | 1001 hPa | - | - | 0 W/m² | - |
| 1777812829 | 35.56° C | 43% | 1000 hPa | - | - | 0 W/m² | - |
| 1777811871 | 35.56° C | 42% | 1000 hPa | - | - | 0 W/m² | - |
| 1777810957 | 35.56° C | 43% | 1000 hPa | - | - | 0 W/m² | - |
| 1777810100 | 35° C | 43% | 1000 hPa | - | - | 0 W/m² | - |
| 1777809126 | 35.56° C | 43% | 999 hPa | - | - | 0 W/m² | - |
| 1777808212 | 35.56° C | 43% | 999 hPa | - | - | 0 W/m² | - |
* Rain since midnight (hover to see other rain measurements)
** Current wind speed in m/s (hover to see current wind gust speed)